Terminal Aerodrome Forecast
Issued by NWS

Home | Current Version | Previous Version | Graphics & Text | Print | Product List | Glossary On
Versions: 1 2 3 4 5 6 7 8 9 10 11 12 13 14 15 16
000
FTUS43 KMPX 251135
TAFRNH
TAF
KRNH 251135Z 2512/2612 04012KT P6SM OVC025
     FM251700 03007KT P6SM SCT025 BKN050
     FM252100 VRB03KT P6SM SCT050
     FM260600 19008KT P6SM SCT030 BKN050=

USA.gov is the U.S. government's official web portal to all federal, state and local government web resources and services.